sensor_id;sensor_type;location;lat;lon;timestamp;temperature;humidity
46784;DHT22;32544;52.832;13.816;2023-08-21T00:00:12;28.30;55.90
46784;DHT22;32544;52.832;13.816;2023-08-21T00:01:13;28.30;55.90
46784;DHT22;32544;52.832;13.816;2023-08-21T00:02:14;28.30;55.90
46784;DHT22;32544;52.832;13.816;2023-08-21T00:03:14;28.30;55.90
46784;DHT22;32544;52.832;13.816;2023-08-21T00:04:15;28.30;55.90
46784;DHT22;32544;52.832;13.816;2023-08-21T00:05:15;28.30;55.90
46784;DHT22;32544;52.832;13.816;2023-08-21T00:06:16;28.30;55.90
46784;DHT22;32544;52.832;13.816;2023-08-21T00:07:17;28.30;55.90
46784;DHT22;32544;52.832;13.816;2023-08-21T00:08:17;28.30;55.80
46784;DHT22;32544;52.832;13.816;2023-08-21T00:09:18;28.30;55.80
46784;DHT22;32544;52.832;13.816;2023-08-21T00:10:18;28.30;55.90
46784;DHT22;32544;52.832;13.816;2023-08-21T00:11:19;28.30;55.80
46784;DHT22;32544;52.832;13.816;2023-08-21T00:12:19;28.30;55.70
46784;DHT22;32544;52.832;13.816;2023-08-21T00:13:20;28.30;55.80
46784;DHT22;32544;52.832;13.816;2023-08-21T00:14:21;28.30;55.80
46784;DHT22;32544;52.832;13.816;2023-08-21T00:15:21;28.30;55.80
46784;DHT22;32544;52.832;13.816;2023-08-21T00:16:22;28.20;55.80
46784;DHT22;32544;52.832;13.816;2023-08-21T00:17:22;28.20;55.80
46784;DHT22;32544;52.832;13.816;2023-08-21T00:18:24;28.20;55.70
46784;DHT22;32544;52.832;13.816;2023-08-21T00:19:24;28.20;55.70
46784;DHT22;32544;52.832;13.816;2023-08-21T00:20:25;28.20;55.70
46784;DHT22;32544;52.832;13.816;2023-08-21T00:21:25;28.20;55.70
46784;DHT22;32544;52.832;13.816;2023-08-21T00:22:26;28.20;55.70
46784;DHT22;32544;52.832;13.816;2023-08-21T00:23:27;28.20;55.70
46784;DHT22;32544;52.832;13.816;2023-08-21T00:24:27;28.20;55.70
46784;DHT22;32544;52.832;13.816;2023-08-21T00:25:28;28.20;55.70
46784;DHT22;32544;52.832;13.816;2023-08-21T00:26:28;28.20;55.70
46784;DHT22;32544;52.832;13.816;2023-08-21T00:27:29;28.20;55.70
46784;DHT22;32544;52.832;13.816;2023-08-21T00:28:30;28.20;55.70
46784;DHT22;32544;52.832;13.816;2023-08-21T00:29:33;28.20;55.70
46784;DHT22;32544;52.832;13.816;2023-08-21T00:30:33;28.20;55.80
46784;DHT22;32544;52.832;13.816;2023-08-21T00:31:35;28.20;55.70
46784;DHT22;32544;52.832;13.816;2023-08-21T00:32:35;28.20;55.70
46784;DHT22;32544;52.832;13.816;2023-08-21T00:33:36;28.20;55.70
46784;DHT22;32544;52.832;13.816;2023-08-21T00:34:37;28.20;55.70
46784;DHT22;32544;52.832;13.816;2023-08-21T00:35:38;28.20;55.70
46784;DHT22;32544;52.832;13.816;2023-08-21T00:36:38;28.20;55.70
46784;DHT22;32544;52.832;13.816;2023-08-21T00:37:39;28.10;55.60
46784;DHT22;32544;52.832;13.816;2023-08-21T00:38:40;28.10;55.70
46784;DHT22;32544;52.832;13.816;2023-08-21T00:39:40;28.20;55.70
46784;DHT22;32544;52.832;13.816;2023-08-21T00:40:41;28.20;55.70
46784;DHT22;32544;52.832;13.816;2023-08-21T00:41:42;28.10;55.70
46784;DHT22;32544;52.832;13.816;2023-08-21T00:42:43;28.10;55.70
46784;DHT22;32544;52.832;13.816;2023-08-21T00:43:45;28.10;55.70
46784;DHT22;32544;52.832;13.816;2023-08-21T00:44:45;28.10;55.70
46784;DHT22;32544;52.832;13.816;2023-08-21T00:45:46;28.10;55.60
46784;DHT22;32544;52.832;13.816;2023-08-21T00:46:47;28.10;55.60
46784;DHT22;32544;52.832;13.816;2023-08-21T00:47:50;28.10;55.70
46784;DHT22;32544;52.832;13.816;2023-08-21T00:48:52;28.10;55.60
46784;DHT22;32544;52.832;13.816;2023-08-21T00:49:52;28.10;55.60
46784;DHT22;32544;52.832;13.816;2023-08-21T00:50:53;28.10;55.70
46784;DHT22;32544;52.832;13.816;2023-08-21T00:51:53;28.10;55.70
46784;DHT22;32544;52.832;13.816;2023-08-21T00:52:54;28.10;55.70
46784;DHT22;32544;52.832;13.816;2023-08-21T00:53:55;28.00;55.70
46784;DHT22;32544;52.832;13.816;2023-08-21T00:54:55;28.00;55.70
46784;DHT22;32544;52.832;13.816;2023-08-21T00:55:56;28.00;55.60
46784;DHT22;32544;52.832;13.816;2023-08-21T00:56:57;28.00;55.60
46784;DHT22;32544;52.832;13.816;2023-08-21T00:57:57;28.00;55.60
46784;DHT22;32544;52.832;13.816;2023-08-21T00:58:58;28.00;55.60
46784;DHT22;32544;52.832;13.816;2023-08-21T00:59:59;28.00;55.60
46784;DHT22;32544;52.832;13.816;2023-08-21T01:01:00;28.00;55.60
46784;DHT22;32544;52.832;13.816;2023-08-21T01:02:01;28.00;55.60
46784;DHT22;32544;52.832;13.816;2023-08-21T01:03:01;28.00;55.60
46784;DHT22;32544;52.832;13.816;2023-08-21T01:04:03;28.00;55.60
46784;DHT22;32544;52.832;13.816;2023-08-21T01:05:04;28.00;55.60
46784;DHT22;32544;52.832;13.816;2023-08-21T01:06:05;28.00;55.50
46784;DHT22;32544;52.832;13.816;2023-08-21T01:07:06;28.00;55.50
46784;DHT22;32544;52.832;13.816;2023-08-21T01:10:24;28.00;55.60
46784;DHT22;32544;52.832;13.816;2023-08-21T01:11:29;27.90;55.60
46784;DHT22;32544;52.832;13.816;2023-08-21T01:13:46;27.90;55.50
46784;DHT22;32544;52.832;13.816;2023-08-21T01:15:01;27.90;55.50
46784;DHT22;32544;52.832;13.816;2023-08-21T01:16:04;27.90;55.40
46784;DHT22;32544;52.832;13.816;2023-08-21T01:17:05;27.90;55.40
46784;DHT22;32544;52.832;13.816;2023-08-21T01:18:07;27.90;55.40
46784;DHT22;32544;52.832;13.816;2023-08-21T01:19:09;27.90;55.40
46784;DHT22;32544;52.832;13.816;2023-08-21T01:20:12;27.90;55.50
46784;DHT22;32544;52.832;13.816;2023-08-21T01:21:14;27.90;55.50
46784;DHT22;32544;52.832;13.816;2023-08-21T01:22:15;27.90;56.10
46784;DHT22;32544;52.832;13.816;2023-08-21T01:23:29;27.90;55.50
46784;DHT22;32544;52.832;13.816;2023-08-21T01:24:29;27.90;55.60
46784;DHT22;32544;52.832;13.816;2023-08-21T01:25:30;27.90;55.50
46784;DHT22;32544;52.832;13.816;2023-08-21T01:26:30;27.90;55.40
46784;DHT22;32544;52.832;13.816;2023-08-21T01:27:31;27.80;55.30
46784;DHT22;32544;52.832;13.816;2023-08-21T01:28:32;27.80;55.30
46784;DHT22;32544;52.832;13.816;2023-08-21T01:29:33;27.80;55.30
46784;DHT22;32544;52.832;13.816;2023-08-21T01:30:34;27.80;55.30
46784;DHT22;32544;52.832;13.816;2023-08-21T01:31:36;27.80;55.40
46784;DHT22;32544;52.832;13.816;2023-08-21T01:33:51;27.80;55.30
46784;DHT22;32544;52.832;13.816;2023-08-21T01:34:54;27.80;55.30
46784;DHT22;32544;52.832;13.816;2023-08-21T01:35:55;27.80;55.40
46784;DHT22;32544;52.832;13.816;2023-08-21T01:36:58;27.80;55.30
46784;DHT22;32544;52.832;13.816;2023-08-21T01:37:59;27.70;55.30
46784;DHT22;32544;52.832;13.816;2023-08-21T01:39:01;27.70;55.30
46784;DHT22;32544;52.832;13.816;2023-08-21T01:40:02;27.70;55.30
46784;DHT22;32544;52.832;13.816;2023-08-21T01:41:02;27.70;55.30
46784;DHT22;32544;52.832;13.816;2023-08-21T01:42:03;27.70;55.40
46784;DHT22;32544;52.832;13.816;2023-08-21T01:43:04;27.70;55.40
46784;DHT22;32544;52.832;13.816;2023-08-21T01:44:05;27.70;55.30
46784;DHT22;32544;52.832;13.816;2023-08-21T01:45:07;27.70;55.30
46784;DHT22;32544;52.832;13.816;2023-08-21T01:46:08;27.70;55.30
46784;DHT22;32544;52.832;13.816;2023-08-21T01:47:09;27.80;55.30
46784;DHT22;32544;52.832;13.816;2023-08-21T01:48:11;27.70;55.20
46784;DHT22;32544;52.832;13.816;2023-08-21T01:49:11;27.70;55.10
46784;DHT22;32544;52.832;13.816;2023-08-21T01:50:12;27.70;55.10
46784;DHT22;32544;52.832;13.816;2023-08-21T01:51:13;27.80;55.30
46784;DHT22;32544;52.832;13.816;2023-08-21T01:52:13;27.80;55.20
46784;DHT22;32544;52.832;13.816;2023-08-21T01:53:14;27.80;55.10
46784;DHT22;32544;52.832;13.816;2023-08-21T01:54:14;27.70;55.00
46784;DHT22;32544;52.832;13.816;2023-08-21T01:55:15;27.70;55.00
46784;DHT22;32544;52.832;13.816;2023-08-21T01:56:16;27.70;55.00
46784;DHT22;32544;52.832;13.816;2023-08-21T01:57:16;27.70;55.00
46784;DHT22;32544;52.832;13.816;2023-08-21T01:58:17;27.70;55.00
46784;DHT22;32544;52.832;13.816;2023-08-21T01:59:19;27.70;55.00
46784;DHT22;32544;52.832;13.816;2023-08-21T02:00:20;27.70;55.00
46784;DHT22;32544;52.832;13.816;2023-08-21T02:01:21;27.70;54.90
46784;DHT22;32544;52.832;13.816;2023-08-21T02:02:21;27.70;54.90
46784;DHT22;32544;52.832;13.816;2023-08-21T02:03:24;27.70;54.90
46784;DHT22;32544;52.832;13.816;2023-08-21T02:04:25;27.70;55.00
46784;DHT22;32544;52.832;13.816;2023-08-21T02:05:26;27.70;55.00
46784;DHT22;32544;52.832;13.816;2023-08-21T02:06:26;27.70;55.00
46784;DHT22;32544;52.832;13.816;2023-08-21T02:07:27;27.70;55.00
46784;DHT22;32544;52.832;13.816;2023-08-21T02:08:30;27.70;54.90
46784;DHT22;32544;52.832;13.816;2023-08-21T02:09:32;27.70;54.80
46784;DHT22;32544;52.832;13.816;2023-08-21T02:10:32;27.60;54.80
46784;DHT22;32544;52.832;13.816;2023-08-21T02:11:33;27.60;54.70
46784;DHT22;32544;52.832;13.816;2023-08-21T02:12:33;27.60;54.70
46784;DHT22;32544;52.832;13.816;2023-08-21T02:13:34;27.60;54.70
46784;DHT22;32544;52.832;13.816;2023-08-21T02:14:35;27.60;54.80
46784;DHT22;32544;52.832;13.816;2023-08-21T02:15:35;27.60;54.80
46784;DHT22;32544;52.832;13.816;2023-08-21T02:16:36;27.60;54.70
46784;DHT22;32544;52.832;13.816;2023-08-21T02:17:39;27.60;54.80
46784;DHT22;32544;52.832;13.816;2023-08-21T02:18:39;27.60;54.80
46784;DHT22;32544;52.832;13.816;2023-08-21T02:19:40;27.60;54.80
46784;DHT22;32544;52.832;13.816;2023-08-21T02:20:41;27.50;54.80
46784;DHT22;32544;52.832;13.816;2023-08-21T02:21:43;27.50;54.70
46784;DHT22;32544;52.832;13.816;2023-08-21T02:22:44;27.50;54.70
46784;DHT22;32544;52.832;13.816;2023-08-21T02:23:45;27.50;54.80
46784;DHT22;32544;52.832;13.816;2023-08-21T02:24:45;27.50;54.70
46784;DHT22;32544;52.832;13.816;2023-08-21T02:25:46;27.50;54.80
46784;DHT22;32544;52.832;13.816;2023-08-21T02:26:46;27.50;54.80
46784;DHT22;32544;52.832;13.816;2023-08-21T02:27:47;27.40;54.80
46784;DHT22;32544;52.832;13.816;2023-08-21T02:28:48;27.40;54.80
46784;DHT22;32544;52.832;13.816;2023-08-21T02:29:48;27.40;54.90
46784;DHT22;32544;52.832;13.816;2023-08-21T02:30:49;27.40;54.90
46784;DHT22;32544;52.832;13.816;2023-08-21T02:31:49;27.40;54.90
46784;DHT22;32544;52.832;13.816;2023-08-21T02:32:50;27.40;54.90
46784;DHT22;32544;52.832;13.816;2023-08-21T02:33:51;27.40;54.90
46784;DHT22;32544;52.832;13.816;2023-08-21T02:34:53;27.30;54.90
46784;DHT22;32544;52.832;13.816;2023-08-21T02:35:54;27.40;54.90
46784;DHT22;32544;52.832;13.816;2023-08-21T02:36:54;27.40;55.00
46784;DHT22;32544;52.832;13.816;2023-08-21T02:37:55;27.40;55.00
46784;DHT22;32544;52.832;13.816;2023-08-21T02:38:56;27.40;55.00
46784;DHT22;32544;52.832;13.816;2023-08-21T02:39:56;27.40;55.00
46784;DHT22;32544;52.832;13.816;2023-08-21T02:40:57;27.40;55.20
46784;DHT22;32544;52.832;13.816;2023-08-21T02:41:57;27.40;55.20
46784;DHT22;32544;52.832;13.816;2023-08-21T02:42:58;27.40;55.20
46784;DHT22;32544;52.832;13.816;2023-08-21T02:44:00;27.30;55.20
46784;DHT22;32544;52.832;13.816;2023-08-21T02:45:00;27.40;55.30
46784;DHT22;32544;52.832;13.816;2023-08-21T02:46:04;27.30;55.30
46784;DHT22;32544;52.832;13.816;2023-08-21T02:47:06;27.30;55.30
46784;DHT22;32544;52.832;13.816;2023-08-21T02:48:07;27.30;55.30
46784;DHT22;32544;52.832;13.816;2023-08-21T02:49:08;27.30;55.30
46784;DHT22;32544;52.832;13.816;2023-08-21T02:50:09;27.30;55.30
46784;DHT22;32544;52.832;13.816;2023-08-21T02:51:09;27.30;55.30
46784;DHT22;32544;52.832;13.816;2023-08-21T02:52:10;27.30;55.30
46784;DHT22;32544;52.832;13.816;2023-08-21T02:53:10;27.30;55.20
46784;DHT22;32544;52.832;13.816;2023-08-21T02:54:11;27.30;55.20
46784;DHT22;32544;52.832;13.816;2023-08-21T02:55:12;27.30;55.20
46784;DHT22;32544;52.832;13.816;2023-08-21T02:56:12;27.30;55.20
46784;DHT22;32544;52.832;13.816;2023-08-21T02:57:13;27.30;55.20
46784;DHT22;32544;52.832;13.816;2023-08-21T02:58:13;27.30;55.10
46784;DHT22;32544;52.832;13.816;2023-08-21T02:59:14;27.40;55.30
46784;DHT22;32544;52.832;13.816;2023-08-21T03:00:15;27.40;55.20
46784;DHT22;32544;52.832;13.816;2023-08-21T03:01:16;27.40;55.20
46784;DHT22;32544;52.832;13.816;2023-08-21T03:02:17;27.40;55.20
46784;DHT22;32544;52.832;13.816;2023-08-21T03:03:18;27.40;55.10
46784;DHT22;32544;52.832;13.816;2023-08-21T03:04:18;27.40;55.20
46784;DHT22;32544;52.832;13.816;2023-08-21T03:05:20;27.40;55.20
46784;DHT22;32544;52.832;13.816;2023-08-21T03:06:21;27.40;55.20
46784;DHT22;32544;52.832;13.816;2023-08-21T03:07:21;27.40;55.80
46784;DHT22;32544;52.832;13.816;2023-08-21T03:08:22;27.40;55.20
46784;DHT22;32544;52.832;13.816;2023-08-21T03:09:22;27.40;55.20
46784;DHT22;32544;52.832;13.816;2023-08-21T03:10:24;27.40;55.20
46784;DHT22;32544;52.832;13.816;2023-08-21T03:11:24;27.40;55.20
46784;DHT22;32544;52.832;13.816;2023-08-21T03:12:26;27.40;55.30
46784;DHT22;32544;52.832;13.816;2023-08-21T03:13:26;27.40;55.90
46784;DHT22;32544;52.832;13.816;2023-08-21T03:14:27;27.40;55.30
46784;DHT22;32544;52.832;13.816;2023-08-21T03:15:28;27.40;55.30
46784;DHT22;32544;52.832;13.816;2023-08-21T03:16:29;27.40;55.20
46784;DHT22;32544;52.832;13.816;2023-08-21T03:17:30;27.40;55.30
46784;DHT22;32544;52.832;13.816;2023-08-21T03:18:31;27.40;55.30
46784;DHT22;32544;52.832;13.816;2023-08-21T03:19:31;27.40;55.30
46784;DHT22;32544;52.832;13.816;2023-08-21T03:20:32;27.40;55.40
46784;DHT22;32544;52.832;13.816;2023-08-21T03:21:33;27.40;55.40
46784;DHT22;32544;52.832;13.816;2023-08-21T03:22:34;27.40;55.40
46784;DHT22;32544;52.832;13.816;2023-08-21T03:23:35;27.40;55.40
46784;DHT22;32544;52.832;13.816;2023-08-21T03:24:35;27.40;55.40
46784;DHT22;32544;52.832;13.816;2023-08-21T03:25:36;27.40;55.40
46784;DHT22;32544;52.832;13.816;2023-08-21T03:26:37;27.40;55.40
46784;DHT22;32544;52.832;13.816;2023-08-21T03:27:37;27.40;55.30
46784;DHT22;32544;52.832;13.816;2023-08-21T03:28:44;27.40;55.30
46784;DHT22;32544;52.832;13.816;2023-08-21T03:29:45;27.40;55.40
46784;DHT22;32544;52.832;13.816;2023-08-21T03:30:48;27.30;55.40
46784;DHT22;32544;52.832;13.816;2023-08-21T03:31:49;27.40;55.40
46784;DHT22;32544;52.832;13.816;2023-08-21T03:32:50;27.30;55.30
46784;DHT22;32544;52.832;13.816;2023-08-21T03:33:51;27.40;55.40
46784;DHT22;32544;52.832;13.816;2023-08-21T03:34:53;27.40;55.40
46784;DHT22;32544;52.832;13.816;2023-08-21T03:35:54;27.30;55.30
46784;DHT22;32544;52.832;13.816;2023-08-21T03:36:57;27.30;55.40
46784;DHT22;32544;52.832;13.816;2023-08-21T03:37:58;27.30;55.40
46784;DHT22;32544;52.832;13.816;2023-08-21T03:39:01;27.30;55.50
46784;DHT22;32544;52.832;13.816;2023-08-21T03:40:03;27.30;55.40
46784;DHT22;32544;52.832;13.816;2023-08-21T03:41:04;27.30;55.50
46784;DHT22;32544;52.832;13.816;2023-08-21T03:42:07;27.30;55.50
46784;DHT22;32544;52.832;13.816;2023-08-21T03:43:08;27.30;55.60
46784;DHT22;32544;52.832;13.816;2023-08-21T03:44:08;27.30;55.60
46784;DHT22;32544;52.832;13.816;2023-08-21T03:45:09;27.20;55.60
46784;DHT22;32544;52.832;13.816;2023-08-21T03:46:09;27.20;55.60
46784;DHT22;32544;52.832;13.816;2023-08-21T03:47:10;27.30;55.70
46784;DHT22;32544;52.832;13.816;2023-08-21T03:48:20;27.30;55.70
46784;DHT22;32544;52.832;13.816;2023-08-21T03:49:21;27.30;55.60
46784;DHT22;32544;52.832;13.816;2023-08-21T03:50:23;27.30;55.60
46784;DHT22;32544;52.832;13.816;2023-08-21T03:51:23;27.30;55.60
46784;DHT22;32544;52.832;13.816;2023-08-21T03:52:24;27.30;55.60
46784;DHT22;32544;52.832;13.816;2023-08-21T03:53:25;27.30;55.60
46784;DHT22;32544;52.832;13.816;2023-08-21T03:54:26;27.30;55.60
46784;DHT22;32544;52.832;13.816;2023-08-21T03:55:28;27.30;55.60
46784;DHT22;32544;52.832;13.816;2023-08-21T03:56:28;27.30;55.60
46784;DHT22;32544;52.832;13.816;2023-08-21T03:57:29;27.30;55.60
46784;DHT22;32544;52.832;13.816;2023-08-21T03:58:29;27.30;55.60
46784;DHT22;32544;52.832;13.816;2023-08-21T03:59:31;27.30;55.60
46784;DHT22;32544;52.832;13.816;2023-08-21T04:00:32;27.20;55.70
46784;DHT22;32544;52.832;13.816;2023-08-21T04:01:33;27.20;55.70
46784;DHT22;32544;52.832;13.816;2023-08-21T04:02:33;27.10;55.70
46784;DHT22;32544;52.832;13.816;2023-08-21T04:03:34;27.10;55.80
46784;DHT22;32544;52.832;13.816;2023-08-21T04:04:34;27.10;55.90
46784;DHT22;32544;52.832;13.816;2023-08-21T04:05:35;27.00;55.90
46784;DHT22;32544;52.832;13.816;2023-08-21T04:06:36;27.00;56.00
46784;DHT22;32544;52.832;13.816;2023-08-21T04:07:37;27.00;56.00
46784;DHT22;32544;52.832;13.816;2023-08-21T04:08:37;27.00;56.10
46784;DHT22;32544;52.832;13.816;2023-08-21T04:09:38;27.00;56.10
46784;DHT22;32544;52.832;13.816;2023-08-21T04:10:38;27.00;56.10
46784;DHT22;32544;52.832;13.816;2023-08-21T04:11:39;27.00;56.10
46784;DHT22;32544;52.832;13.816;2023-08-21T04:12:40;27.00;56.10
46784;DHT22;32544;52.832;13.816;2023-08-21T04:13:40;27.00;56.00
46784;DHT22;32544;52.832;13.816;2023-08-21T04:14:41;27.00;56.10
46784;DHT22;32544;52.832;13.816;2023-08-21T04:15:45;27.00;56.70
46784;DHT22;32544;52.832;13.816;2023-08-21T04:16:46;27.00;56.00
46784;DHT22;32544;52.832;13.816;2023-08-21T04:17:46;27.00;56.00
46784;DHT22;32544;52.832;13.816;2023-08-21T04:18:48;27.00;56.10
46784;DHT22;32544;52.832;13.816;2023-08-21T04:19:50;27.00;56.10
46784;DHT22;32544;52.832;13.816;2023-08-21T04:20:51;26.90;56.00
46784;DHT22;32544;52.832;13.816;2023-08-21T04:21:52;26.90;56.10
46784;DHT22;32544;52.832;13.816;2023-08-21T04:22:53;26.90;56.10
46784;DHT22;32544;52.832;13.816;2023-08-21T04:23:53;26.90;56.20
46784;DHT22;32544;52.832;13.816;2023-08-21T04:24:54;26.80;56.10
46784;DHT22;32544;52.832;13.816;2023-08-21T04:25:59;26.80;56.20
46784;DHT22;32544;52.832;13.816;2023-08-21T04:27:00;26.80;56.20
46784;DHT22;32544;52.832;13.816;2023-08-21T04:28:00;26.80;56.20
46784;DHT22;32544;52.832;13.816;2023-08-21T04:29:02;26.80;56.30
46784;DHT22;32544;52.832;13.816;2023-08-21T04:30:05;26.80;56.30
46784;DHT22;32544;52.832;13.816;2023-08-21T04:31:06;26.80;56.40
46784;DHT22;32544;52.832;13.816;2023-08-21T04:32:08;26.80;56.30
46784;DHT22;32544;52.832;13.816;2023-08-21T04:33:08;26.80;56.30
46784;DHT22;32544;52.832;13.816;2023-08-21T04:34:09;26.80;56.30
46784;DHT22;32544;52.832;13.816;2023-08-21T04:35:10;26.80;56.30
46784;DHT22;32544;52.832;13.816;2023-08-21T04:36:15;26.90;56.20
46784;DHT22;32544;52.832;13.816;2023-08-21T04:37:16;26.90;56.20
46784;DHT22;32544;52.832;13.816;2023-08-21T04:38:17;26.90;56.20
46784;DHT22;32544;52.832;13.816;2023-08-21T04:39:17;26.80;56.30
46784;DHT22;32544;52.832;13.816;2023-08-21T04:40:19;26.80;56.30
46784;DHT22;32544;52.832;13.816;2023-08-21T04:41:21;26.80;56.40
46784;DHT22;32544;52.832;13.816;2023-08-21T04:42:22;26.80;56.50
46784;DHT22;32544;52.832;13.816;2023-08-21T04:43:23;26.80;56.50
46784;DHT22;32544;52.832;13.816;2023-08-21T04:44:24;26.80;56.50
46784;DHT22;32544;52.832;13.816;2023-08-21T04:45:25;26.80;56.50
46784;DHT22;32544;52.832;13.816;2023-08-21T04:46:27;26.80;56.60
46784;DHT22;32544;52.832;13.816;2023-08-21T04:47:28;26.80;56.60
46784;DHT22;32544;52.832;13.816;2023-08-21T04:48:33;26.80;56.60
46784;DHT22;32544;52.832;13.816;2023-08-21T04:49:35;26.80;56.60
46784;DHT22;32544;52.832;13.816;2023-08-21T04:50:36;26.80;56.60
46784;DHT22;32544;52.832;13.816;2023-08-21T04:51:37;26.80;57.20
46784;DHT22;32544;52.832;13.816;2023-08-21T04:52:38;26.90;56.50
46784;DHT22;32544;52.832;13.816;2023-08-21T04:53:38;26.90;56.50
46784;DHT22;32544;52.832;13.816;2023-08-21T04:54:44;26.90;56.50
46784;DHT22;32544;52.832;13.816;2023-08-21T04:55:44;27.00;56.40
46784;DHT22;32544;52.832;13.816;2023-08-21T04:56:46;27.00;56.40
46784;DHT22;32544;52.832;13.816;2023-08-21T04:57:48;27.00;56.30
46784;DHT22;32544;52.832;13.816;2023-08-21T04:58:48;27.00;56.40
46784;DHT22;32544;52.832;13.816;2023-08-21T04:59:50;27.00;56.40
46784;DHT22;32544;52.832;13.816;2023-08-21T05:00:52;26.90;56.50
46784;DHT22;32544;52.832;13.816;2023-08-21T05:01:53;26.90;56.50
46784;DHT22;32544;52.832;13.816;2023-08-21T05:02:53;26.90;56.50
46784;DHT22;32544;52.832;13.816;2023-08-21T05:03:54;26.80;56.70
46784;DHT22;32544;52.832;13.816;2023-08-21T05:04:55;26.80;56.70
46784;DHT22;32544;52.832;13.816;2023-08-21T05:05:56;26.80;56.90
46784;DHT22;32544;52.832;13.816;2023-08-21T05:06:57;26.80;56.80
46784;DHT22;32544;52.832;13.816;2023-08-21T05:07:57;26.70;56.90
46784;DHT22;32544;52.832;13.816;2023-08-21T05:08:58;26.70;57.00
46784;DHT22;32544;52.832;13.816;2023-08-21T05:09:59;26.70;57.00
46784;DHT22;32544;52.832;13.816;2023-08-21T05:20:04;26.70;57.40
46784;DHT22;32544;52.832;13.816;2023-08-21T05:21:04;26.70;57.40
46784;DHT22;32544;52.832;13.816;2023-08-21T05:22:05;26.70;57.40
46784;DHT22;32544;52.832;13.816;2023-08-21T05:23:06;26.70;57.40
46784;DHT22;32544;52.832;13.816;2023-08-21T05:24:07;26.70;57.40
46784;DHT22;32544;52.832;13.816;2023-08-21T05:25:10;26.70;57.30
46784;DHT22;32544;52.832;13.816;2023-08-21T05:26:11;26.70;57.30
46784;DHT22;32544;52.832;13.816;2023-08-21T05:27:12;26.80;57.40
46784;DHT22;32544;52.832;13.816;2023-08-21T05:28:12;26.80;57.50
46784;DHT22;32544;52.832;13.816;2023-08-21T05:29:13;26.70;57.50
46784;DHT22;32544;52.832;13.816;2023-08-21T05:30:14;26.70;57.50
46784;DHT22;32544;52.832;13.816;2023-08-21T05:31:15;26.80;57.40
46784;DHT22;32544;52.832;13.816;2023-08-21T05:32:21;26.80;57.40
46784;DHT22;32544;52.832;13.816;2023-08-21T05:33:22;26.80;57.40
46784;DHT22;32544;52.832;13.816;2023-08-21T05:34:24;26.90;57.40
46784;DHT22;32544;52.832;13.816;2023-08-21T05:35:26;26.90;57.30
46784;DHT22;32544;52.832;13.816;2023-08-21T05:36:26;26.90;57.40
46784;DHT22;32544;52.832;13.816;2023-08-21T05:37:27;26.90;57.50
46784;DHT22;32544;52.832;13.816;2023-08-21T05:38:29;26.80;57.50
46784;DHT22;32544;52.832;13.816;2023-08-21T05:39:30;26.80;57.60
46784;DHT22;32544;52.832;13.816;2023-08-21T05:40:30;26.80;57.60
46784;DHT22;32544;52.832;13.816;2023-08-21T05:41:32;26.80;57.70
46784;DHT22;32544;52.832;13.816;2023-08-21T05:42:32;26.80;57.80
46784;DHT22;32544;52.832;13.816;2023-08-21T05:43:33;26.80;57.70
46784;DHT22;32544;52.832;13.816;2023-08-21T05:44:35;26.80;57.60
46784;DHT22;32544;52.832;13.816;2023-08-21T05:45:35;26.90;57.70
46784;DHT22;32544;52.832;13.816;2023-08-21T05:46:36;26.90;57.60
46784;DHT22;32544;52.832;13.816;2023-08-21T05:47:38;26.90;57.40
46784;DHT22;32544;52.832;13.816;2023-08-21T05:48:39;26.90;57.40
46784;DHT22;32544;52.832;13.816;2023-08-21T05:49:40;27.00;57.50
46784;DHT22;32544;52.832;13.816;2023-08-21T05:50:41;27.00;57.50
46784;DHT22;32544;52.832;13.816;2023-08-21T05:51:41;27.00;57.30
46784;DHT22;32544;52.832;13.816;2023-08-21T05:52:42;27.00;57.30
46784;DHT22;32544;52.832;13.816;2023-08-21T05:53:44;27.00;57.30
46784;DHT22;32544;52.832;13.816;2023-08-21T05:54:45;27.00;57.30
46784;DHT22;32544;52.832;13.816;2023-08-21T05:55:45;27.00;57.20
46784;DHT22;32544;52.832;13.816;2023-08-21T05:56:46;27.00;57.30
46784;DHT22;32544;52.832;13.816;2023-08-21T05:57:48;27.10;57.20
46784;DHT22;32544;52.832;13.816;2023-08-21T05:58:51;27.10;57.30
46784;DHT22;32544;52.832;13.816;2023-08-21T05:59:51;27.10;57.10
46784;DHT22;32544;52.832;13.816;2023-08-21T06:00:52;27.10;57.30
46784;DHT22;32544;52.832;13.816;2023-08-21T06:01:52;27.10;57.20
46784;DHT22;32544;52.832;13.816;2023-08-21T06:02:53;27.10;57.20
46784;DHT22;32544;52.832;13.816;2023-08-21T06:04:16;27.10;57.20
46784;DHT22;32544;52.832;13.816;2023-08-21T06:05:25;27.10;57.10
46784;DHT22;32544;52.832;13.816;2023-08-21T06:06:27;27.10;57.10
46784;DHT22;32544;52.832;13.816;2023-08-21T06:07:28;27.10;57.00
46784;DHT22;32544;52.832;13.816;2023-08-21T06:08:28;27.10;57.10
46784;DHT22;32544;52.832;13.816;2023-08-21T06:09:29;27.10;57.10
46784;DHT22;32544;52.832;13.816;2023-08-21T06:10:33;27.20;57.20
46784;DHT22;32544;52.832;13.816;2023-08-21T06:11:33;27.10;57.20
46784;DHT22;32544;52.832;13.816;2023-08-21T06:12:34;27.10;57.50
46784;DHT22;32544;52.832;13.816;2023-08-21T06:13:34;27.10;57.60
46784;DHT22;32544;52.832;13.816;2023-08-21T06:14:36;27.10;57.60
46784;DHT22;32544;52.832;13.816;2023-08-21T06:15:36;27.10;57.40
46784;DHT22;32544;52.832;13.816;2023-08-21T06:16:37;27.00;57.50
46784;DHT22;32544;52.832;13.816;2023-08-21T06:17:38;27.00;57.50
46784;DHT22;32544;52.832;13.816;2023-08-21T06:18:39;27.10;57.50
46784;DHT22;32544;52.832;13.816;2023-08-21T06:19:39;27.10;57.50
46784;DHT22;32544;52.832;13.816;2023-08-21T06:20:42;27.10;57.50
46784;DHT22;32544;52.832;13.816;2023-08-21T06:21:42;27.10;57.40
46784;DHT22;32544;52.832;13.816;2023-08-21T06:22:43;27.10;57.40
46784;DHT22;32544;52.832;13.816;2023-08-21T06:23:43;27.10;57.30
46784;DHT22;32544;52.832;13.816;2023-08-21T06:24:44;27.10;57.30
46784;DHT22;32544;52.832;13.816;2023-08-21T06:25:50;27.20;57.30
46784;DHT22;32544;52.832;13.816;2023-08-21T06:26:52;27.20;57.30
46784;DHT22;32544;52.832;13.816;2023-08-21T06:27:53;27.20;57.30
46784;DHT22;32544;52.832;13.816;2023-08-21T06:28:54;27.20;57.30
46784;DHT22;32544;52.832;13.816;2023-08-21T06:29:55;27.20;57.40
46784;DHT22;32544;52.832;13.816;2023-08-21T06:30:56;27.10;57.50
46784;DHT22;32544;52.832;13.816;2023-08-21T06:31:58;27.10;57.50
46784;DHT22;32544;52.832;13.816;2023-08-21T06:32:59;27.10;57.50
46784;DHT22;32544;52.832;13.816;2023-08-21T06:34:01;27.10;57.50